createdAt,value
2022-08-01T00:00:48.969Z,3.80
2022-08-01T00:03:56.590Z,4.00
2022-08-01T00:07:04.108Z,3.92
2022-08-01T00:10:18.489Z,3.83
2022-08-01T00:13:25.889Z,3.85
2022-08-01T00:16:33.658Z,3.55
2022-08-01T00:19:41.388Z,3.67
2022-08-01T00:22:48.428Z,3.45
2022-08-01T00:25:57.959Z,3.67
2022-08-01T00:29:06.621Z,3.70
2022-08-01T00:32:37.018Z,4.20
2022-08-01T00:35:44.769Z,4.25
2022-08-01T00:38:53.349Z,3.70
2022-08-01T00:42:01.917Z,3.77
2022-08-01T00:45:09.332Z,3.67
2022-08-01T00:48:15.791Z,3.50
2022-08-01T00:51:22.807Z,3.55
2022-08-01T00:54:30.194Z,3.97
2022-08-01T00:58:01.818Z,4.03
2022-08-01T01:01:05.008Z,3.60
2022-08-01T01:04:24.971Z,4.10
2022-08-01T01:07:36.682Z,3.60
2022-08-01T01:11:09.956Z,3.90
2022-08-01T01:14:24.024Z,3.90
2022-08-01T01:18:04.148Z,3.65
2022-08-01T01:21:22.529Z,3.40
2022-08-01T01:24:49.239Z,3.28
2022-08-01T01:28:25.166Z,3.55
2022-08-01T01:31:47.187Z,3.70
2022-08-01T01:34:54.867Z,3.40
2022-08-01T01:38:11.758Z,3.75
2022-08-01T01:41:19.552Z,3.65
2022-08-01T01:44:26.290Z,3.87
2022-08-01T01:47:33.528Z,3.83
2022-08-01T01:50:41.830Z,3.80
2022-08-01T01:53:49.211Z,3.50
2022-08-01T01:56:55.709Z,3.80
2022-08-01T02:00:02.272Z,4.00
2022-08-01T02:03:11.268Z,4.20
2022-08-01T02:06:18.553Z,4.20
2022-08-01T02:09:45.330Z,3.80
2022-08-01T02:12:51.636Z,4.35
2022-08-01T02:16:00.265Z,4.50
2022-08-01T02:19:06.335Z,4.43
2022-08-01T02:22:14.307Z,4.28
2022-08-01T02:25:21.086Z,4.75
2022-08-01T02:28:40.359Z,4.05
2022-08-01T02:31:48.788Z,4.60
2022-08-01T02:34:55.801Z,4.20
2022-08-01T02:38:04.011Z,4.10
2022-08-01T02:41:17.509Z,4.40
2022-08-01T02:44:30.930Z,4.70
2022-08-01T02:47:38.418Z,4.60
2022-08-01T02:50:47.758Z,4.60
2022-08-01T02:53:55.841Z,4.20
2022-08-01T02:57:02.748Z,3.90
2022-08-01T03:00:11.095Z,4.32
2022-08-01T03:03:19.394Z,4.25
2022-08-01T03:06:28.669Z,4.53
2022-08-01T03:09:40.016Z,4.87
2022-08-01T03:12:47.027Z,4.82
2022-08-01T03:15:55.597Z,5.40
2022-08-01T03:19:03.063Z,5.78
2022-08-01T03:22:10.982Z,5.07
2022-08-01T03:25:18.196Z,6.37
2022-08-01T03:28:24.571Z,5.78
2022-08-01T03:31:37.661Z,6.00
2022-08-01T03:34:44.269Z,6.07
2022-08-01T03:38:15.703Z,6.57
2022-08-01T03:41:23.324Z,5.80
2022-08-01T03:44:30.777Z,5.62
2022-08-01T03:47:43.455Z,5.20
2022-08-01T03:50:53.067Z,5.75
2022-08-01T03:54:00.729Z,5.80
2022-08-01T03:57:07.477Z,5.25
2022-08-01T04:00:15.229Z,6.05
2022-08-01T04:03:22.179Z,7.35
2022-08-01T04:06:28.317Z,6.53
2022-08-01T04:09:34.968Z,6.23
2022-08-01T04:12:41.094Z,5.97
2022-08-01T04:15:47.143Z,6.60
2022-08-01T04:18:53.086Z,6.72
2022-08-01T04:21:59.704Z,5.43
2022-08-01T04:25:09.924Z,6.43
2022-08-01T04:28:21.303Z,5.97
2022-08-01T04:31:27.839Z,6.40
2022-08-01T04:34:34.366Z,6.43
2022-08-01T04:37:41.864Z,8.35
2022-08-01T04:40:49.149Z,8.30
2022-08-01T04:43:56.641Z,7.40
2022-08-01T04:47:05.711Z,7.53
2022-08-01T04:50:12.989Z,9.30
2022-08-01T04:53:27.069Z,10.40
2022-08-01T04:56:36.791Z,8.80
2022-08-01T04:59:49.070Z,8.93
2022-08-01T05:02:56.989Z,11.10
2022-08-01T05:06:06.450Z,10.80
2022-08-01T05:09:13.798Z,10.30
2022-08-01T05:12:21.910Z,17.07
2022-08-01T05:15:32.473Z,13.62
2022-08-01T05:18:42.970Z,13.65
2022-08-01T05:22:00.182Z,18.05
2022-08-01T05:25:09.821Z,14.85
2022-08-01T05:28:24.010Z,11.63
2022-08-01T05:31:34.248Z,11.85
2022-08-01T05:34:42.032Z,10.20
2022-08-01T05:37:52.723Z,10.07
2022-08-01T05:41:00.753Z,10.30
2022-08-01T05:44:06.963Z,8.77
2022-08-01T05:47:12.488Z,8.43
2022-08-01T05:50:20.310Z,8.80
2022-08-01T05:53:30.729Z,8.68
2022-08-01T05:56:39.033Z,8.60
2022-08-01T05:59:48.053Z,8.70
2022-08-01T06:02:57.652Z,8.80
2022-08-01T06:06:05.335Z,8.57
2022-08-01T06:09:13.499Z,8.27
2022-08-01T06:12:21.477Z,7.85
2022-08-01T06:15:35.873Z,9.40
2022-08-01T06:18:47.373Z,8.63
2022-08-01T06:21:56.278Z,8.25
2022-08-01T06:25:05.873Z,8.32
2022-08-01T06:28:13.263Z,7.57
2022-08-01T06:31:39.315Z,8.30
2022-08-01T06:34:48.752Z,7.72
2022-08-01T06:37:56.675Z,7.47
2022-08-01T06:41:05.059Z,8.20
2022-08-01T06:44:13.109Z,7.97
2022-08-01T06:47:20.311Z,8.20
2022-08-01T06:50:30.996Z,8.63
2022-08-01T06:53:40.333Z,8.32
2022-08-01T06:56:48.672Z,8.30
2022-08-01T06:59:56.654Z,9.20
2022-08-01T07:03:06.031Z,8.37
2022-08-01T07:06:15.659Z,8.00
2022-08-01T07:09:23.829Z,7.97
2022-08-01T07:12:30.068Z,7.80
2022-08-01T07:15:41.453Z,7.12
2022-08-01T07:18:48.757Z,6.47
2022-08-01T07:21:54.947Z,7.30
2022-08-01T07:25:01.404Z,6.80
2022-08-01T07:28:08.013Z,6.75
2022-08-01T07:31:16.531Z,6.95
2022-08-01T07:34:23.959Z,6.67
2022-08-01T07:37:48.257Z,6.30
2022-08-01T07:41:00.752Z,6.40
2022-08-01T07:44:08.292Z,6.72
2022-08-01T07:47:15.525Z,6.30
2022-08-01T07:50:27.929Z,6.53
2022-08-01T07:53:37.637Z,6.57
2022-08-01T07:56:45.034Z,6.30
2022-08-01T08:00:11.614Z,6.60
2022-08-01T08:03:17.254Z,6.35
2022-08-01T08:06:24.011Z,7.13
2022-08-01T08:09:45.651Z,6.62
2022-08-01T08:13:03.981Z,6.80
2022-08-01T08:16:12.569Z,7.00
2022-08-01T08:19:19.966Z,7.22
2022-08-01T08:22:47.038Z,6.73
2022-08-01T08:25:53.762Z,6.82
2022-08-01T08:28:59.974Z,6.90
2022-08-01T08:32:11.984Z,7.32
2022-08-01T08:35:47.941Z,6.80
2022-08-01T08:39:02.322Z,7.63
2022-08-01T08:42:15.539Z,6.40
2022-08-01T08:45:45.056Z,6.10
2022-08-01T08:48:51.987Z,6.32
2022-08-01T08:52:06.623Z,6.45
2022-08-01T08:55:19.800Z,7.03
2022-08-01T08:58:40.619Z,5.80
2022-08-01T09:01:47.188Z,6.50
2022-08-01T09:04:53.150Z,6.32
2022-08-01T09:08:01.770Z,6.05
2022-08-01T09:11:10.051Z,5.77
2022-08-01T09:14:28.466Z,6.53
2022-08-01T09:17:43.791Z,6.37
2022-08-01T09:20:51.180Z,6.37
2022-08-01T09:23:59.050Z,6.53
2022-08-01T09:27:29.729Z,6.43
2022-08-01T09:31:02.852Z,5.85
2022-08-01T09:34:12.492Z,6.30
2022-08-01T09:37:24.119Z,6.53
2022-08-01T09:40:52.294Z,6.50
2022-08-01T09:44:00.825Z,5.67
2022-08-01T09:47:08.123Z,6.07
2022-08-01T09:50:22.304Z,6.18
2022-08-01T09:53:30.799Z,5.90
2022-08-01T09:56:44.465Z,6.30
2022-08-01T10:00:01.601Z,6.47
2022-08-01T10:03:39.825Z,5.62
2022-08-01T10:12:54.299Z,6.60
2022-08-01T10:16:02.643Z,7.32
2022-08-01T10:19:11.378Z,6.87
2022-08-01T10:22:28.563Z,6.90
2022-08-01T10:25:44.110Z,7.20
2022-08-01T10:28:58.791Z,6.82
2022-08-01T10:32:13.435Z,7.03
2022-08-01T10:35:46.536Z,7.10
2022-08-01T10:38:50.398Z,6.87
2022-08-01T10:41:58.529Z,7.70
2022-08-01T10:45:06.753Z,7.10
2022-08-01T10:48:36.556Z,6.78
2022-08-01T10:51:51.543Z,6.33
2022-08-01T10:55:06.871Z,6.70
2022-08-01T10:58:16.492Z,6.75
2022-08-01T11:01:33.997Z,6.35
2022-08-01T11:04:55.292Z,7.03
2022-08-01T11:08:14.090Z,6.67
2022-08-01T11:11:22.574Z,6.18
2022-08-01T11:15:04.231Z,6.72
2022-08-01T11:18:43.374Z,6.40
2022-08-01T11:22:06.951Z,6.60
2022-08-01T11:25:20.536Z,5.90
2022-08-01T11:29:20.693Z,6.30
2022-08-01T11:32:42.437Z,6.50
2022-08-01T11:36:31.971Z,5.80
2022-08-01T11:40:20.013Z,6.68
2022-08-01T11:43:32.954Z,5.73
2022-08-01T11:47:15.017Z,5.90
2022-08-01T11:50:36.894Z,5.87
2022-08-01T11:53:53.651Z,6.25
2022-08-01T11:57:02.966Z,6.25
2022-08-01T12:00:18.580Z,6.27
2022-08-01T12:03:40.171Z,6.00
2022-08-01T12:06:57.416Z,6.35
2022-08-01T12:10:18.411Z,6.28
2022-08-01T12:13:25.791Z,6.85
2022-08-01T12:16:33.261Z,6.30
2022-08-01T12:19:40.895Z,6.07
2022-08-01T12:22:47.600Z,6.35
2022-08-01T12:25:54.796Z,6.20
2022-08-01T12:29:01.048Z,6.53
2022-08-01T12:32:07.216Z,6.13
2022-08-01T12:35:35.053Z,6.25
2022-08-01T12:38:43.036Z,6.50
2022-08-01T12:41:50.035Z,6.15
2022-08-01T12:44:58.040Z,6.90
2022-08-01T12:48:20.771Z,5.93
2022-08-01T12:51:28.089Z,5.55
2022-08-01T12:55:09.773Z,6.55
2022-08-01T12:58:19.551Z,5.97
2022-08-01T13:01:28.661Z,6.45
2022-08-01T13:04:55.932Z,5.93
2022-08-01T13:08:29.980Z,6.20
2022-08-01T13:11:37.016Z,6.43
2022-08-01T13:14:45.693Z,5.80
2022-08-01T13:18:02.769Z,6.68
2022-08-01T13:21:34.436Z,6.90
2022-08-01T13:25:23.041Z,6.60
2022-08-01T13:28:33.171Z,6.65
2022-08-01T13:31:41.111Z,6.95
2022-08-01T13:34:47.492Z,6.72
2022-08-01T13:37:54.403Z,6.43
2022-08-01T13:41:01.191Z,7.03
2022-08-01T13:44:07.207Z,7.37
2022-08-01T13:47:16.963Z,7.10
2022-08-01T13:50:27.571Z,7.30
2022-08-01T13:53:34.938Z,6.63
2022-08-01T13:56:47.693Z,7.00
2022-08-01T13:59:58.812Z,7.43
2022-08-01T14:03:08.424Z,6.90
2022-08-01T14:06:15.933Z,7.40
2022-08-01T14:09:24.920Z,7.13
2022-08-01T14:12:37.860Z,7.50
2022-08-01T14:15:43.784Z,8.07
2022-08-01T14:18:50.258Z,7.53
2022-08-01T14:21:56.228Z,7.95
2022-08-01T14:25:03.623Z,6.80
2022-08-01T14:28:16.372Z,7.60
2022-08-01T14:31:34.075Z,7.75
2022-08-01T14:34:47.752Z,6.90
2022-08-01T14:37:55.077Z,7.65
2022-08-01T14:41:05.760Z,7.93
2022-08-01T14:44:17.441Z,7.55
2022-08-01T14:47:24.350Z,7.45
2022-08-01T14:50:41.573Z,7.70
2022-08-01T14:53:50.792Z,7.72
2022-08-01T14:57:05.364Z,7.10
2022-08-01T15:00:14.973Z,6.90
2022-08-01T15:03:20.905Z,7.60
2022-08-01T15:06:27.954Z,7.40
2022-08-01T15:09:34.066Z,8.13
2022-08-01T15:12:49.984Z,7.40
2022-08-01T15:16:01.234Z,7.25
2022-08-01T15:19:08.086Z,7.30
2022-08-01T15:22:16.154Z,6.68
2022-08-01T15:25:24.511Z,6.65
2022-08-01T15:28:39.795Z,6.90
2022-08-01T15:31:46.483Z,6.75
2022-08-01T15:34:52.932Z,6.78
2022-08-01T15:37:59.933Z,7.03
2022-08-01T15:41:06.785Z,6.45
2022-08-01T15:44:12.457Z,6.37
2022-08-01T15:47:19.812Z,6.55
2022-08-01T15:50:27.655Z,6.47
2022-08-01T15:53:33.698Z,6.40
2022-08-01T15:56:41.595Z,6.70
2022-08-01T15:59:48.157Z,6.30
2022-08-01T16:02:57.508Z,6.37
2022-08-01T16:06:04.567Z,6.70
2022-08-01T16:09:18.381Z,6.70
2022-08-01T16:12:25.436Z,6.62
2022-08-01T16:15:37.031Z,5.80
2022-08-01T16:18:43.824Z,6.03
2022-08-01T16:21:51.356Z,6.18
2022-08-01T16:25:05.863Z,5.85
2022-08-01T16:28:15.753Z,6.37
2022-08-01T16:31:43.727Z,5.50
2022-08-01T16:34:51.064Z,5.60
2022-08-01T16:37:59.434Z,5.25
2022-08-01T16:41:19.296Z,5.35
2022-08-01T16:44:34.356Z,4.80
2022-08-01T16:47:46.960Z,5.30
2022-08-01T16:50:53.981Z,5.25
2022-08-01T16:54:01.896Z,5.12
2022-08-01T16:57:09.241Z,4.65
2022-08-01T17:00:25.953Z,5.40
2022-08-01T17:03:51.403Z,4.80
2022-08-01T17:07:01.653Z,4.97
2022-08-01T17:10:08.100Z,5.03
2022-08-01T17:13:35.511Z,5.47
2022-08-01T17:16:43.572Z,5.10
2022-08-01T17:19:52.113Z,4.63
2022-08-01T17:22:59.434Z,4.93
2022-08-01T17:26:08.373Z,4.60
2022-08-01T17:29:19.642Z,4.50
2022-08-01T17:32:27.871Z,4.60
2022-08-01T17:35:37.912Z,4.90
2022-08-01T17:38:45.015Z,5.37
2022-08-01T17:41:52.475Z,5.35
2022-08-01T17:45:00.990Z,4.75
2022-08-01T17:48:19.675Z,4.95
2022-08-01T17:51:28.629Z,4.53
2022-08-01T17:54:36.054Z,4.40
2022-08-01T17:57:43.051Z,4.75
2022-08-01T18:00:49.734Z,4.55
2022-08-01T18:03:57.904Z,5.10
2022-08-01T18:07:06.033Z,7.37
2022-08-01T18:10:16.893Z,4.75
2022-08-01T18:13:25.093Z,4.72
2022-08-01T18:16:35.915Z,4.18
2022-08-01T18:19:47.432Z,4.62
2022-08-01T18:22:55.099Z,4.50
2022-08-01T18:26:04.394Z,4.60
2022-08-01T18:29:13.889Z,5.53
2022-08-01T18:32:33.789Z,4.80
2022-08-01T18:35:52.526Z,4.97
2022-08-01T18:39:10.456Z,4.87
2022-08-01T18:42:21.473Z,4.85
2022-08-01T18:45:30.872Z,5.30
2022-08-01T18:48:40.673Z,4.70
2022-08-01T18:51:51.132Z,5.15
2022-08-01T18:55:06.596Z,4.77
2022-08-01T18:58:16.152Z,4.60
2022-08-01T19:01:24.964Z,4.65
2022-08-01T19:04:35.333Z,4.90
2022-08-01T19:08:05.878Z,4.57
2022-08-01T19:11:17.412Z,4.87
2022-08-01T19:14:27.930Z,4.72
2022-08-01T19:17:35.913Z,5.10
2022-08-01T19:20:45.210Z,5.00
2022-08-01T19:24:12.191Z,4.90
2022-08-01T19:27:27.293Z,4.50
2022-08-01T19:30:42.448Z,4.93
2022-08-01T19:33:51.251Z,4.87
2022-08-01T19:37:00.553Z,5.07
2022-08-01T19:40:10.509Z,4.90
2022-08-01T19:43:20.131Z,4.50
2022-08-01T19:46:28.049Z,4.93
2022-08-01T19:49:36.645Z,5.20
2022-08-01T19:52:51.591Z,4.78
2022-08-01T19:56:02.871Z,5.00
2022-08-01T19:59:12.788Z,5.37
2022-08-01T20:02:25.971Z,4.95
2022-08-01T20:05:33.933Z,5.28
2022-08-01T20:08:42.292Z,5.72
2022-08-01T20:11:55.089Z,5.50
2022-08-01T20:15:05.272Z,4.87
2022-08-01T20:18:12.390Z,5.43
2022-08-01T20:21:20.754Z,5.07
2022-08-01T20:24:30.230Z,4.85
2022-08-01T20:27:41.870Z,5.20
2022-08-01T20:30:50.150Z,4.80
2022-08-01T20:34:00.752Z,4.57
2022-08-01T20:37:14.088Z,5.20
2022-08-01T20:40:26.640Z,4.80
2022-08-01T20:43:35.034Z,5.00
2022-08-01T20:46:43.950Z,4.73
2022-08-01T20:49:51.972Z,5.35
2022-08-01T20:52:59.930Z,4.97
2022-08-01T20:56:19.970Z,4.80
2022-08-01T21:00:18.132Z,4.90
2022-08-01T21:03:27.870Z,5.10
2022-08-01T21:06:41.275Z,5.03
2022-08-01T21:09:52.792Z,5.40
2022-08-01T21:13:08.892Z,5.12
2022-08-01T21:16:23.912Z,5.00
2022-08-01T21:19:36.050Z,5.47
2022-08-01T21:23:06.730Z,5.78
2022-08-01T21:26:16.981Z,5.05
2022-08-01T21:29:25.373Z,5.40
2022-08-01T21:32:34.071Z,5.22
2022-08-01T21:35:41.739Z,5.50
2022-08-01T21:38:51.925Z,5.22
2022-08-01T21:42:04.009Z,5.82
2022-08-01T21:45:17.132Z,5.40
2022-08-01T21:48:26.902Z,5.45
2022-08-01T21:52:00.853Z,5.40
2022-08-01T21:55:21.433Z,4.90
2022-08-01T21:58:41.189Z,5.47
2022-08-01T22:02:16.769Z,4.95
2022-08-01T22:05:49.744Z,5.20
2022-08-01T22:08:59.391Z,4.83
2022-08-01T22:12:10.162Z,5.70
2022-08-01T22:15:23.100Z,5.20
2022-08-01T22:18:30.310Z,5.60
2022-08-01T22:21:42.171Z,5.65
2022-08-01T22:24:50.950Z,5.70
2022-08-01T22:28:08.799Z,5.62
2022-08-01T22:31:18.792Z,5.80
2022-08-01T22:34:30.183Z,5.97
2022-08-01T22:37:56.921Z,6.22
2022-08-01T22:41:07.590Z,6.40
2022-08-01T22:44:16.029Z,6.35
2022-08-01T22:47:54.391Z,5.85
2022-08-01T22:51:17.751Z,5.62
2022-08-01T22:54:40.314Z,5.15
2022-08-01T22:58:00.810Z,5.50
2022-08-01T23:01:21.329Z,5.60
2022-08-01T23:04:47.478Z,5.43
2022-08-01T23:08:03.611Z,5.50
2022-08-01T23:11:16.950Z,5.75
2022-08-01T23:14:26.191Z,5.40
2022-08-01T23:17:33.932Z,5.40
2022-08-01T23:20:42.112Z,5.30
2022-08-01T23:23:49.931Z,5.30
2022-08-01T23:26:57.812Z,6.68
2022-08-01T23:30:06.751Z,5.53
2022-08-01T23:33:15.265Z,5.45
2022-08-01T23:36:22.731Z,6.22
2022-08-01T23:39:31.711Z,5.45
2022-08-01T23:42:38.918Z,6.12
2022-08-01T23:46:04.050Z,5.93
2022-08-01T23:49:13.951Z,5.68
2022-08-01T23:52:22.211Z,6.05
2022-08-01T23:55:37.723Z,6.65
2022-08-01T23:58:47.392Z,5.93
